sensor_id;sensor_type;location;lat;lon;timestamp;P1;durP1;ratioP1;P2;durP2;ratioP2
26223;SDS011;14820;48.682;8.890;2022-12-18T00:02:03;47.30;;;20.08;;
26223;SDS011;14820;48.682;8.890;2022-12-18T00:04:28;59.53;;;21.10;;
26223;SDS011;14820;48.682;8.890;2022-12-18T00:06:55;53.90;;;20.02;;
26223;SDS011;14820;48.682;8.890;2022-12-18T00:09:20;46.47;;;20.08;;
26223;SDS011;14820;48.682;8.890;2022-12-18T00:11:46;46.60;;;18.70;;
26223;SDS011;14820;48.682;8.890;2022-12-18T00:14:12;45.95;;;19.55;;
26223;SDS011;14820;48.682;8.890;2022-12-18T00:16:38;47.05;;;18.83;;
26223;SDS011;14820;48.682;8.890;2022-12-18T00:19:05;48.90;;;19.98;;
26223;SDS011;14820;48.682;8.890;2022-12-18T00:21:32;48.85;;;19.33;;
26223;SDS011;14820;48.682;8.890;2022-12-18T00:23:59;45.35;;;20.38;;
26223;SDS011;14820;48.682;8.890;2022-12-18T00:26:26;49.05;;;19.25;;
26223;SDS011;14820;48.682;8.890;2022-12-18T00:28:54;49.08;;;19.40;;
26223;SDS011;14820;48.682;8.890;2022-12-18T00:31:24;51.03;;;19.73;;
26223;SDS011;14820;48.682;8.890;2022-12-18T00:33:50;52.40;;;19.80;;
26223;SDS011;14820;48.682;8.890;2022-12-18T00:36:17;46.75;;;18.90;;
26223;SDS011;14820;48.682;8.890;2022-12-18T00:38:48;52.05;;;20.15;;
26223;SDS011;14820;48.682;8.890;2022-12-18T00:41:15;50.17;;;20.92;;
26223;SDS011;14820;48.682;8.890;2022-12-18T00:44:03;50.75;;;19.88;;
26223;SDS011;14820;48.682;8.890;2022-12-18T00:46:30;46.38;;;18.52;;
26223;SDS011;14820;48.682;8.890;2022-12-18T00:48:56;46.60;;;19.25;;
26223;SDS011;14820;48.682;8.890;2022-12-18T00:51:22;56.72;;;19.55;;
26223;SDS011;14820;48.682;8.890;2022-12-18T00:53:48;51.10;;;19.13;;
26223;SDS011;14820;48.682;8.890;2022-12-18T00:56:14;49.40;;;19.05;;
26223;SDS011;14820;48.682;8.890;2022-12-18T00:58:39;53.55;;;19.55;;
26223;SDS011;14820;48.682;8.890;2022-12-18T01:01:05;52.38;;;19.20;;
26223;SDS011;14820;48.682;8.890;2022-12-18T01:03:31;47.22;;;20.15;;
26223;SDS011;14820;48.682;8.890;2022-12-18T01:05:57;47.35;;;19.35;;
26223;SDS011;14820;48.682;8.890;2022-12-18T01:08:23;50.17;;;18.05;;
26223;SDS011;14820;48.682;8.890;2022-12-18T01:10:49;50.83;;;18.02;;
26223;SDS011;14820;48.682;8.890;2022-12-18T01:13:17;47.38;;;17.33;;
26223;SDS011;14820;48.682;8.890;2022-12-18T01:15:49;44.80;;;18.52;;
26223;SDS011;14820;48.682;8.890;2022-12-18T01:18:15;45.97;;;18.30;;
26223;SDS011;14820;48.682;8.890;2022-12-18T01:20:42;46.47;;;18.88;;
26223;SDS011;14820;48.682;8.890;2022-12-18T01:23:07;44.05;;;18.02;;
26223;SDS011;14820;48.682;8.890;2022-12-18T01:25:35;44.00;;;17.17;;
26223;SDS011;14820;48.682;8.890;2022-12-18T01:28:01;49.13;;;17.58;;
26223;SDS011;14820;48.682;8.890;2022-12-18T01:30:27;46.40;;;17.33;;
26223;SDS011;14820;48.682;8.890;2022-12-18T01:32:53;38.45;;;16.52;;
26223;SDS011;14820;48.682;8.890;2022-12-18T01:35:19;40.05;;;17.00;;
26223;SDS011;14820;48.682;8.890;2022-12-18T01:37:44;48.22;;;17.48;;
26223;SDS011;14820;48.682;8.890;2022-12-18T01:40:10;41.63;;;17.60;;
26223;SDS011;14820;48.682;8.890;2022-12-18T01:42:36;39.80;;;17.13;;
26223;SDS011;14820;48.682;8.890;2022-12-18T01:45:03;39.47;;;16.70;;
26223;SDS011;14820;48.682;8.890;2022-12-18T01:47:45;40.92;;;16.98;;
26223;SDS011;14820;48.682;8.890;2022-12-18T01:50:14;40.78;;;15.93;;
26223;SDS011;14820;48.682;8.890;2022-12-18T01:52:44;41.80;;;16.80;;
26223;SDS011;14820;48.682;8.890;2022-12-18T01:55:17;35.15;;;14.40;;
26223;SDS011;14820;48.682;8.890;2022-12-18T01:57:45;37.55;;;15.65;;
26223;SDS011;14820;48.682;8.890;2022-12-18T02:00:14;37.45;;;15.07;;
26223;SDS011;14820;48.682;8.890;2022-12-18T02:02:43;39.80;;;16.73;;
26223;SDS011;14820;48.682;8.890;2022-12-18T02:05:10;39.40;;;17.17;;
26223;SDS011;14820;48.682;8.890;2022-12-18T02:10:18;46.13;;;17.67;;
26223;SDS011;14820;48.682;8.890;2022-12-18T02:15:40;41.90;;;16.77;;
26223;SDS011;14820;48.682;8.890;2022-12-18T02:18:28;46.03;;;16.48;;
26223;SDS011;14820;48.682;8.890;2022-12-18T02:23:35;49.13;;;17.58;;
26223;SDS011;14820;48.682;8.890;2022-12-18T02:28:56;42.97;;;16.92;;
26223;SDS011;14820;48.682;8.890;2022-12-18T02:31:28;43.67;;;16.70;;
26223;SDS011;14820;48.682;8.890;2022-12-18T02:34:00;41.60;;;17.38;;
26223;SDS011;14820;48.682;8.890;2022-12-18T02:36:27;44.00;;;17.85;;
26223;SDS011;14820;48.682;8.890;2022-12-18T02:38:55;48.28;;;17.92;;
26223;SDS011;14820;48.682;8.890;2022-12-18T02:41:23;41.65;;;17.98;;
26223;SDS011;14820;48.682;8.890;2022-12-18T02:43:57;39.78;;;16.48;;
26223;SDS011;14820;48.682;8.890;2022-12-18T02:46:31;44.03;;;17.58;;
26223;SDS011;14820;48.682;8.890;2022-12-18T02:49:47;44.95;;;17.35;;
26223;SDS011;14820;48.682;8.890;2022-12-18T02:52:18;39.15;;;17.30;;
26223;SDS011;14820;48.682;8.890;2022-12-18T02:55:00;44.20;;;17.45;;
26223;SDS011;14820;48.682;8.890;2022-12-18T02:57:54;44.00;;;17.58;;
26223;SDS011;14820;48.682;8.890;2022-12-18T03:00:39;39.50;;;16.15;;
26223;SDS011;14820;48.682;8.890;2022-12-18T03:03:19;38.03;;;16.75;;
26223;SDS011;14820;48.682;8.890;2022-12-18T03:06:01;47.65;;;18.65;;
26223;SDS011;14820;48.682;8.890;2022-12-18T03:08:36;42.13;;;17.75;;
26223;SDS011;14820;48.682;8.890;2022-12-18T03:11:08;41.42;;;17.58;;
26223;SDS011;14820;48.682;8.890;2022-12-18T03:16:17;42.20;;;18.13;;
26223;SDS011;14820;48.682;8.890;2022-12-18T03:19:01;54.63;;;20.27;;
26223;SDS011;14820;48.682;8.890;2022-12-18T03:21:28;42.75;;;18.83;;
26223;SDS011;14820;48.682;8.890;2022-12-18T03:24:06;45.22;;;18.92;;
26223;SDS011;14820;48.682;8.890;2022-12-18T03:26:34;47.03;;;18.23;;
26223;SDS011;14820;48.682;8.890;2022-12-18T03:29:07;48.42;;;20.08;;
26223;SDS011;14820;48.682;8.890;2022-12-18T03:31:45;53.40;;;21.55;;
26223;SDS011;14820;48.682;8.890;2022-12-18T03:34:23;49.35;;;19.90;;
26223;SDS011;14820;48.682;8.890;2022-12-18T03:36:58;50.67;;;19.40;;
26223;SDS011;14820;48.682;8.890;2022-12-18T03:39:27;48.92;;;20.50;;
26223;SDS011;14820;48.682;8.890;2022-12-18T03:41:55;46.13;;;18.40;;
26223;SDS011;14820;48.682;8.890;2022-12-18T03:49:53;51.08;;;20.85;;
26223;SDS011;14820;48.682;8.890;2022-12-18T03:52:23;48.30;;;21.13;;
26223;SDS011;14820;48.682;8.890;2022-12-18T03:55:07;49.83;;;20.45;;
26223;SDS011;14820;48.682;8.890;2022-12-18T03:57:35;49.78;;;21.35;;
26223;SDS011;14820;48.682;8.890;2022-12-18T04:00:07;47.83;;;20.75;;
26223;SDS011;14820;48.682;8.890;2022-12-18T04:02:38;53.28;;;20.92;;
26223;SDS011;14820;48.682;8.890;2022-12-18T04:05:12;52.70;;;20.25;;
26223;SDS011;14820;48.682;8.890;2022-12-18T04:07:39;50.95;;;20.63;;
26223;SDS011;14820;48.682;8.890;2022-12-18T04:10:06;55.22;;;21.35;;
26223;SDS011;14820;48.682;8.890;2022-12-18T04:12:32;50.75;;;20.55;;
26223;SDS011;14820;48.682;8.890;2022-12-18T04:14:58;45.60;;;19.65;;
26223;SDS011;14820;48.682;8.890;2022-12-18T04:17:24;49.35;;;20.05;;
26223;SDS011;14820;48.682;8.890;2022-12-18T04:19:49;45.00;;;19.77;;
26223;SDS011;14820;48.682;8.890;2022-12-18T04:22:15;51.55;;;19.98;;
26223;SDS011;14820;48.682;8.890;2022-12-18T04:24:41;52.13;;;20.45;;
26223;SDS011;14820;48.682;8.890;2022-12-18T04:27:07;50.78;;;20.33;;
26223;SDS011;14820;48.682;8.890;2022-12-18T04:29:32;40.72;;;18.95;;
26223;SDS011;14820;48.682;8.890;2022-12-18T04:31:58;46.25;;;17.85;;
26223;SDS011;14820;48.682;8.890;2022-12-18T04:34:24;43.35;;;18.67;;
26223;SDS011;14820;48.682;8.890;2022-12-18T04:36:52;47.65;;;19.00;;
26223;SDS011;14820;48.682;8.890;2022-12-18T04:39:18;48.00;;;19.20;;
26223;SDS011;14820;48.682;8.890;2022-12-18T04:41:44;48.03;;;19.00;;
26223;SDS011;14820;48.682;8.890;2022-12-18T04:44:09;45.67;;;19.15;;
26223;SDS011;14820;48.682;8.890;2022-12-18T04:46:35;40.10;;;18.25;;
26223;SDS011;14820;48.682;8.890;2022-12-18T04:49:01;47.25;;;19.00;;
26223;SDS011;14820;48.682;8.890;2022-12-18T04:51:26;54.10;;;19.25;;
26223;SDS011;14820;48.682;8.890;2022-12-18T04:53:52;46.67;;;17.25;;
26223;SDS011;14820;48.682;8.890;2022-12-18T04:56:18;50.40;;;19.65;;
26223;SDS011;14820;48.682;8.890;2022-12-18T04:58:44;45.33;;;18.58;;
26223;SDS011;14820;48.682;8.890;2022-12-18T05:01:10;40.85;;;17.02;;
26223;SDS011;14820;48.682;8.890;2022-12-18T05:03:37;45.85;;;16.52;;
26223;SDS011;14820;48.682;8.890;2022-12-18T05:06:03;38.97;;;17.20;;
26223;SDS011;14820;48.682;8.890;2022-12-18T05:08:30;40.55;;;17.85;;
26223;SDS011;14820;48.682;8.890;2022-12-18T05:11:06;58.30;;;20.88;;
26223;SDS011;14820;48.682;8.890;2022-12-18T05:13:40;44.17;;;17.40;;
26223;SDS011;14820;48.682;8.890;2022-12-18T05:16:06;41.00;;;17.58;;
26223;SDS011;14820;48.682;8.890;2022-12-18T05:18:32;50.33;;;18.50;;
26223;SDS011;14820;48.682;8.890;2022-12-18T05:20:57;57.92;;;22.63;;
26223;SDS011;14820;48.682;8.890;2022-12-18T05:23:23;69.65;;;35.60;;
26223;SDS011;14820;48.682;8.890;2022-12-18T05:25:53;68.10;;;32.08;;
26223;SDS011;14820;48.682;8.890;2022-12-18T05:28:20;54.92;;;23.92;;
26223;SDS011;14820;48.682;8.890;2022-12-18T05:30:57;50.63;;;20.98;;
26223;SDS011;14820;48.682;8.890;2022-12-18T05:33:25;55.05;;;21.48;;
26223;SDS011;14820;48.682;8.890;2022-12-18T05:35:59;51.88;;;20.20;;
26223;SDS011;14820;48.682;8.890;2022-12-18T05:38:26;41.65;;;19.05;;
26223;SDS011;14820;48.682;8.890;2022-12-18T05:40:53;48.45;;;18.48;;
26223;SDS011;14820;48.682;8.890;2022-12-18T05:43:19;42.15;;;17.50;;
26223;SDS011;14820;48.682;8.890;2022-12-18T05:45:47;41.45;;;18.08;;
26223;SDS011;14820;48.682;8.890;2022-12-18T05:48:13;44.55;;;19.27;;
26223;SDS011;14820;48.682;8.890;2022-12-18T05:50:42;48.88;;;20.42;;
26223;SDS011;14820;48.682;8.890;2022-12-18T05:53:10;50.05;;;20.52;;
26223;SDS011;14820;48.682;8.890;2022-12-18T05:55:38;48.90;;;20.00;;
26223;SDS011;14820;48.682;8.890;2022-12-18T05:58:05;50.83;;;20.25;;
26223;SDS011;14820;48.682;8.890;2022-12-18T06:00:33;47.20;;;19.63;;
26223;SDS011;14820;48.682;8.890;2022-12-18T06:03:00;47.63;;;18.73;;
26223;SDS011;14820;48.682;8.890;2022-12-18T06:05:26;52.60;;;19.67;;
26223;SDS011;14820;48.682;8.890;2022-12-18T06:07:52;43.42;;;17.27;;
26223;SDS011;14820;48.682;8.890;2022-12-18T06:10:18;41.83;;;18.67;;
26223;SDS011;14820;48.682;8.890;2022-12-18T06:12:44;44.38;;;19.55;;
26223;SDS011;14820;48.682;8.890;2022-12-18T06:15:09;44.63;;;18.35;;
26223;SDS011;14820;48.682;8.890;2022-12-18T06:17:35;45.97;;;19.13;;
26223;SDS011;14820;48.682;8.890;2022-12-18T06:20:01;41.92;;;18.50;;
26223;SDS011;14820;48.682;8.890;2022-12-18T06:22:27;48.13;;;19.00;;
26223;SDS011;14820;48.682;8.890;2022-12-18T06:24:55;45.75;;;18.15;;
26223;SDS011;14820;48.682;8.890;2022-12-18T06:27:20;43.35;;;18.60;;
26223;SDS011;14820;48.682;8.890;2022-12-18T06:29:46;41.30;;;17.63;;
26223;SDS011;14820;48.682;8.890;2022-12-18T06:32:12;45.58;;;18.83;;
26223;SDS011;14820;48.682;8.890;2022-12-18T06:34:38;42.38;;;19.27;;
26223;SDS011;14820;48.682;8.890;2022-12-18T06:37:03;50.30;;;19.88;;
26223;SDS011;14820;48.682;8.890;2022-12-18T06:39:29;51.33;;;21.20;;
26223;SDS011;14820;48.682;8.890;2022-12-18T06:41:55;54.35;;;22.30;;
26223;SDS011;14820;48.682;8.890;2022-12-18T06:44:21;46.67;;;20.42;;
26223;SDS011;14820;48.682;8.890;2022-12-18T06:46:46;59.30;;;21.98;;
26223;SDS011;14820;48.682;8.890;2022-12-18T06:49:12;48.67;;;21.85;;
26223;SDS011;14820;48.682;8.890;2022-12-18T06:51:38;52.47;;;20.02;;
26223;SDS011;14820;48.682;8.890;2022-12-18T06:54:04;55.55;;;20.23;;
26223;SDS011;14820;48.682;8.890;2022-12-18T06:56:30;56.65;;;20.73;;
26223;SDS011;14820;48.682;8.890;2022-12-18T06:58:55;51.13;;;19.08;;
26223;SDS011;14820;48.682;8.890;2022-12-18T07:01:21;51.75;;;20.60;;
26223;SDS011;14820;48.682;8.890;2022-12-18T07:03:51;52.00;;;18.98;;
26223;SDS011;14820;48.682;8.890;2022-12-18T07:06:21;54.50;;;20.55;;
26223;SDS011;14820;48.682;8.890;2022-12-18T07:08:51;55.78;;;21.48;;
26223;SDS011;14820;48.682;8.890;2022-12-18T07:11:18;49.45;;;20.48;;
26223;SDS011;14820;48.682;8.890;2022-12-18T07:13:44;52.40;;;20.45;;
26223;SDS011;14820;48.682;8.890;2022-12-18T07:16:12;52.88;;;21.73;;
26223;SDS011;14820;48.682;8.890;2022-12-18T07:18:39;52.15;;;21.33;;
26223;SDS011;14820;48.682;8.890;2022-12-18T07:21:06;51.30;;;19.33;;
26223;SDS011;14820;48.682;8.890;2022-12-18T07:23:37;53.85;;;21.23;;
26223;SDS011;14820;48.682;8.890;2022-12-18T07:26:06;53.58;;;20.50;;
26223;SDS011;14820;48.682;8.890;2022-12-18T07:28:36;54.35;;;20.40;;
26223;SDS011;14820;48.682;8.890;2022-12-18T07:31:05;46.10;;;17.65;;
26223;SDS011;14820;48.682;8.890;2022-12-18T07:33:33;48.08;;;19.00;;
26223;SDS011;14820;48.682;8.890;2022-12-18T07:35:59;46.70;;;19.55;;
26223;SDS011;14820;48.682;8.890;2022-12-18T07:38:29;42.75;;;18.33;;
26223;SDS011;14820;48.682;8.890;2022-12-18T07:41:02;46.20;;;19.55;;
26223;SDS011;14820;48.682;8.890;2022-12-18T07:43:31;49.20;;;19.45;;
26223;SDS011;14820;48.682;8.890;2022-12-18T07:45:59;48.20;;;20.60;;
26223;SDS011;14820;48.682;8.890;2022-12-18T07:48:25;53.00;;;20.02;;
26223;SDS011;14820;48.682;8.890;2022-12-18T07:50:51;50.65;;;20.17;;
26223;SDS011;14820;48.682;8.890;2022-12-18T07:53:20;55.25;;;21.98;;
26223;SDS011;14820;48.682;8.890;2022-12-18T07:55:46;57.35;;;22.85;;
26223;SDS011;14820;48.682;8.890;2022-12-18T07:58:15;47.83;;;21.88;;
26223;SDS011;14820;48.682;8.890;2022-12-18T08:00:45;64.90;;;22.85;;
26223;SDS011;14820;48.682;8.890;2022-12-18T08:03:11;59.40;;;22.58;;
26223;SDS011;14820;48.682;8.890;2022-12-18T08:05:41;56.88;;;22.63;;
26223;SDS011;14820;48.682;8.890;2022-12-18T08:08:08;65.65;;;25.05;;
26223;SDS011;14820;48.682;8.890;2022-12-18T08:10:33;64.65;;;26.27;;
26223;SDS011;14820;48.682;8.890;2022-12-18T08:13:00;82.00;;;31.60;;
26223;SDS011;14820;48.682;8.890;2022-12-18T08:15:26;86.78;;;31.83;;
26223;SDS011;14820;48.682;8.890;2022-12-18T08:17:56;85.85;;;30.77;;
26223;SDS011;14820;48.682;8.890;2022-12-18T08:20:22;98.80;;;36.08;;
26223;SDS011;14820;48.682;8.890;2022-12-18T08:22:49;98.78;;;36.25;;
26223;SDS011;14820;48.682;8.890;2022-12-18T08:25:14;87.95;;;35.22;;
26223;SDS011;14820;48.682;8.890;2022-12-18T08:27:40;79.70;;;32.53;;
26223;SDS011;14820;48.682;8.890;2022-12-18T08:30:09;65.55;;;27.85;;
26223;SDS011;14820;48.682;8.890;2022-12-18T08:32:36;72.30;;;29.80;;
26223;SDS011;14820;48.682;8.890;2022-12-18T08:35:02;56.45;;;24.13;;
26223;SDS011;14820;48.682;8.890;2022-12-18T08:37:31;60.90;;;23.95;;
26223;SDS011;14820;48.682;8.890;2022-12-18T08:39:57;56.55;;;22.95;;
26223;SDS011;14820;48.682;8.890;2022-12-18T08:42:29;53.53;;;22.30;;
26223;SDS011;14820;48.682;8.890;2022-12-18T08:45:13;48.63;;;20.55;;
26223;SDS011;14820;48.682;8.890;2022-12-18T08:47:39;57.38;;;22.85;;
26223;SDS011;14820;48.682;8.890;2022-12-18T08:50:08;56.72;;;23.08;;
26223;SDS011;14820;48.682;8.890;2022-12-18T08:52:35;61.97;;;23.10;;
26223;SDS011;14820;48.682;8.890;2022-12-18T08:55:03;69.38;;;26.52;;
26223;SDS011;14820;48.682;8.890;2022-12-18T08:57:30;72.22;;;27.65;;
26223;SDS011;14820;48.682;8.890;2022-12-18T08:59:56;74.90;;;29.70;;
26223;SDS011;14820;48.682;8.890;2022-12-18T09:02:25;83.95;;;32.60;;
26223;SDS011;14820;48.682;8.890;2022-12-18T09:04:53;77.72;;;31.02;;
26223;SDS011;14820;48.682;8.890;2022-12-18T09:07:19;66.30;;;26.42;;
26223;SDS011;14820;48.682;8.890;2022-12-18T09:09:45;71.47;;;27.27;;
26223;SDS011;14820;48.682;8.890;2022-12-18T09:12:13;64.38;;;24.80;;
26223;SDS011;14820;48.682;8.890;2022-12-18T09:14:39;106.78;;;37.50;;
26223;SDS011;14820;48.682;8.890;2022-12-18T09:17:04;102.25;;;34.90;;
26223;SDS011;14820;48.682;8.890;2022-12-18T09:19:38;82.63;;;30.67;;
26223;SDS011;14820;48.682;8.890;2022-12-18T09:22:07;89.85;;;32.88;;
26223;SDS011;14820;48.682;8.890;2022-12-18T09:24:35;83.75;;;31.90;;
26223;SDS011;14820;48.682;8.890;2022-12-18T09:27:01;100.55;;;34.88;;
26223;SDS011;14820;48.682;8.890;2022-12-18T09:29:27;72.35;;;26.63;;
26223;SDS011;14820;48.682;8.890;2022-12-18T09:31:53;78.03;;;27.63;;
26223;SDS011;14820;48.682;8.890;2022-12-18T09:34:20;53.33;;;21.63;;
26223;SDS011;14820;48.682;8.890;2022-12-18T09:36:48;53.90;;;21.58;;
26223;SDS011;14820;48.682;8.890;2022-12-18T09:39:16;68.38;;;24.92;;
26223;SDS011;14820;48.682;8.890;2022-12-18T09:46:55;57.58;;;22.63;;
26223;SDS011;14820;48.682;8.890;2022-12-18T09:49:36;55.28;;;22.33;;
26223;SDS011;14820;48.682;8.890;2022-12-18T09:58:30;54.45;;;21.05;;
26223;SDS011;14820;48.682;8.890;2022-12-18T10:00:39;54.22;;;21.60;;
26223;SDS011;14820;48.682;8.890;2022-12-18T10:03:12;53.75;;;23.67;;
26223;SDS011;14820;48.682;8.890;2022-12-18T10:11:46;40.80;;;18.10;;
26223;SDS011;14820;48.682;8.890;2022-12-18T10:27:42;51.70;;;21.27;;
26223;SDS011;14820;48.682;8.890;2022-12-18T10:30:26;48.55;;;21.50;;
26223;SDS011;14820;48.682;8.890;2022-12-18T10:32:52;50.05;;;21.27;;
26223;SDS011;14820;48.682;8.890;2022-12-18T10:35:22;54.95;;;21.33;;
26223;SDS011;14820;48.682;8.890;2022-12-18T10:38:33;51.08;;;21.23;;
26223;SDS011;14820;48.682;8.890;2022-12-18T10:40:49;51.58;;;21.10;;
26223;SDS011;14820;48.682;8.890;2022-12-18T10:48:52;55.90;;;22.25;;
26223;SDS011;14820;48.682;8.890;2022-12-18T10:53:56;54.75;;;22.13;;
26223;SDS011;14820;48.682;8.890;2022-12-18T10:56:24;52.17;;;21.15;;
26223;SDS011;14820;48.682;8.890;2022-12-18T10:59:12;56.13;;;22.08;;
26223;SDS011;14820;48.682;8.890;2022-12-18T11:01:58;52.42;;;22.10;;
26223;SDS011;14820;48.682;8.890;2022-12-18T11:04:28;52.17;;;21.90;;
26223;SDS011;14820;48.682;8.890;2022-12-18T11:06:59;57.80;;;22.88;;
26223;SDS011;14820;48.682;8.890;2022-12-18T11:09:28;50.60;;;21.83;;
26223;SDS011;14820;48.682;8.890;2022-12-18T11:12:17;55.70;;;22.35;;
26223;SDS011;14820;48.682;8.890;2022-12-18T11:14:53;55.10;;;22.33;;
26223;SDS011;14820;48.682;8.890;2022-12-18T11:17:27;55.55;;;24.35;;
26223;SDS011;14820;48.682;8.890;2022-12-18T11:19:57;56.55;;;23.75;;
26223;SDS011;14820;48.682;8.890;2022-12-18T11:22:30;55.63;;;23.20;;
26223;SDS011;14820;48.682;8.890;2022-12-18T11:27:27;54.38;;;23.83;;
26223;SDS011;14820;48.682;8.890;2022-12-18T11:30:06;55.95;;;22.77;;
26223;SDS011;14820;48.682;8.890;2022-12-18T11:32:38;54.35;;;23.25;;
26223;SDS011;14820;48.682;8.890;2022-12-18T11:35:19;71.95;;;29.95;;
26223;SDS011;14820;48.682;8.890;2022-12-18T11:37:59;62.40;;;25.02;;
26223;SDS011;14820;48.682;8.890;2022-12-18T11:44:11;89.40;;;33.58;;
26223;SDS011;14820;48.682;8.890;2022-12-18T11:46:24;66.05;;;27.75;;
26223;SDS011;14820;48.682;8.890;2022-12-18T11:49:01;54.75;;;24.15;;
26223;SDS011;14820;48.682;8.890;2022-12-18T11:51:49;57.78;;;22.90;;
26223;SDS011;14820;48.682;8.890;2022-12-18T11:54:23;57.78;;;24.42;;
26223;SDS011;14820;48.682;8.890;2022-12-18T11:57:02;58.67;;;25.33;;
26223;SDS011;14820;48.682;8.890;2022-12-18T12:08:33;53.40;;;23.88;;
26223;SDS011;14820;48.682;8.890;2022-12-18T12:11:27;58.92;;;24.58;;
26223;SDS011;14820;48.682;8.890;2022-12-18T12:20:11;56.38;;;24.15;;
26223;SDS011;14820;48.682;8.890;2022-12-18T12:25:40;60.63;;;23.95;;
26223;SDS011;14820;48.682;8.890;2022-12-18T12:36:13;64.05;;;24.52;;
26223;SDS011;14820;48.682;8.890;2022-12-18T12:38:57;60.38;;;24.05;;
26223;SDS011;14820;48.682;8.890;2022-12-18T12:41:27;62.42;;;24.45;;
26223;SDS011;14820;48.682;8.890;2022-12-18T12:44:27;62.42;;;24.77;;
26223;SDS011;14820;48.682;8.890;2022-12-18T12:47:04;65.50;;;26.83;;
26223;SDS011;14820;48.682;8.890;2022-12-18T12:49:39;68.10;;;26.02;;
26223;SDS011;14820;48.682;8.890;2022-12-18T12:52:12;76.97;;;28.50;;
26223;SDS011;14820;48.682;8.890;2022-12-18T12:54:41;71.32;;;27.15;;
26223;SDS011;14820;48.682;8.890;2022-12-18T12:57:16;73.50;;;31.90;;
26223;SDS011;14820;48.682;8.890;2022-12-18T13:02:30;66.50;;;27.15;;
26223;SDS011;14820;48.682;8.890;2022-12-18T13:05:14;64.35;;;25.80;;
26223;SDS011;14820;48.682;8.890;2022-12-18T13:08:02;65.35;;;28.60;;
26223;SDS011;14820;48.682;8.890;2022-12-18T13:10:36;71.18;;;28.67;;
26223;SDS011;14820;48.682;8.890;2022-12-18T13:18:35;66.20;;;26.42;;
26223;SDS011;14820;48.682;8.890;2022-12-18T13:23:46;70.60;;;28.40;;
26223;SDS011;14820;48.682;8.890;2022-12-18T13:34:25;59.80;;;28.33;;
26223;SDS011;14820;48.682;8.890;2022-12-18T13:36:57;66.72;;;28.80;;
26223;SDS011;14820;48.682;8.890;2022-12-18T13:39:43;64.97;;;28.30;;
26223;SDS011;14820;48.682;8.890;2022-12-18T13:44:57;72.07;;;29.35;;
26223;SDS011;14820;48.682;8.890;2022-12-18T13:47:33;72.60;;;29.45;;
26223;SDS011;14820;48.682;8.890;2022-12-18T13:50:00;80.05;;;30.67;;
26223;SDS011;14820;48.682;8.890;2022-12-18T13:52:50;64.22;;;28.75;;
26223;SDS011;14820;48.682;8.890;2022-12-18T13:55:18;72.93;;;29.83;;
26223;SDS011;14820;48.682;8.890;2022-12-18T13:57:45;77.63;;;30.38;;
26223;SDS011;14820;48.682;8.890;2022-12-18T14:00:27;70.05;;;27.90;;
26223;SDS011;14820;48.682;8.890;2022-12-18T14:02:54;73.20;;;29.90;;
26223;SDS011;14820;48.682;8.890;2022-12-18T14:05:23;63.70;;;26.80;;
26223;SDS011;14820;48.682;8.890;2022-12-18T14:07:51;66.80;;;28.17;;
26223;SDS011;14820;48.682;8.890;2022-12-18T14:10:18;67.90;;;27.70;;
26223;SDS011;14820;48.682;8.890;2022-12-18T14:12:46;64.57;;;27.50;;
26223;SDS011;14820;48.682;8.890;2022-12-18T14:20:22;57.00;;;25.98;;
26223;SDS011;14820;48.682;8.890;2022-12-18T14:22:49;58.33;;;25.95;;
26223;SDS011;14820;48.682;8.890;2022-12-18T14:28:30;59.20;;;26.33;;
26223;SDS011;14820;48.682;8.890;2022-12-18T14:30:38;56.17;;;24.77;;
26223;SDS011;14820;48.682;8.890;2022-12-18T14:33:08;62.55;;;26.55;;
26223;SDS011;14820;48.682;8.890;2022-12-18T14:35:37;57.97;;;25.65;;
26223;SDS011;14820;48.682;8.890;2022-12-18T14:38:18;67.47;;;28.48;;
26223;SDS011;14820;48.682;8.890;2022-12-18T14:40:53;61.63;;;26.05;;
26223;SDS011;14820;48.682;8.890;2022-12-18T14:43:20;64.65;;;28.85;;
26223;SDS011;14820;48.682;8.890;2022-12-18T14:45:46;70.75;;;30.55;;
26223;SDS011;14820;48.682;8.890;2022-12-18T14:56:45;79.88;;;32.50;;
26223;SDS011;14820;48.682;8.890;2022-12-18T14:59:22;69.18;;;31.58;;
26223;SDS011;14820;48.682;8.890;2022-12-18T15:04:45;80.43;;;34.28;;
26223;SDS011;14820;48.682;8.890;2022-12-18T15:09:38;80.18;;;33.42;;
26223;SDS011;14820;48.682;8.890;2022-12-18T15:12:05;79.90;;;35.85;;
26223;SDS011;14820;48.682;8.890;2022-12-18T15:14:44;86.43;;;37.72;;
26223;SDS011;14820;48.682;8.890;2022-12-18T15:17:20;88.75;;;39.65;;
26223;SDS011;14820;48.682;8.890;2022-12-18T15:19:51;89.75;;;41.38;;
26223;SDS011;14820;48.682;8.890;2022-12-18T15:24:49;78.15;;;36.63;;
26223;SDS011;14820;48.682;8.890;2022-12-18T15:27:24;92.20;;;39.55;;
26223;SDS011;14820;48.682;8.890;2022-12-18T15:32:49;82.68;;;35.53;;
26223;SDS011;14820;48.682;8.890;2022-12-18T15:35:37;91.05;;;38.17;;
26223;SDS011;14820;48.682;8.890;2022-12-18T15:38:03;80.28;;;36.50;;
26223;SDS011;14820;48.682;8.890;2022-12-18T15:40:29;86.10;;;37.08;;
26223;SDS011;14820;48.682;8.890;2022-12-18T15:42:54;84.28;;;35.50;;
26223;SDS011;14820;48.682;8.890;2022-12-18T15:45:39;89.50;;;38.17;;
26223;SDS011;14820;48.682;8.890;2022-12-18T15:48:17;80.78;;;34.78;;
26223;SDS011;14820;48.682;8.890;2022-12-18T15:50:48;110.75;;;43.72;;
26223;SDS011;14820;48.682;8.890;2022-12-18T15:53:18;118.05;;;46.42;;
26223;SDS011;14820;48.682;8.890;2022-12-18T15:55:44;133.05;;;50.20;;
26223;SDS011;14820;48.682;8.890;2022-12-18T15:58:31;116.75;;;46.47;;
26223;SDS011;14820;48.682;8.890;2022-12-18T16:00:58;110.15;;;41.55;;
26223;SDS011;14820;48.682;8.890;2022-12-18T16:03:27;98.30;;;40.15;;
26223;SDS011;14820;48.682;8.890;2022-12-18T16:05:53;96.78;;;42.72;;
26223;SDS011;14820;48.682;8.890;2022-12-18T16:08:20;84.88;;;37.60;;
26223;SDS011;14820;48.682;8.890;2022-12-18T16:10:46;95.65;;;39.20;;
26223;SDS011;14820;48.682;8.890;2022-12-18T16:13:12;89.90;;;37.78;;
26223;SDS011;14820;48.682;8.890;2022-12-18T16:15:43;89.72;;;44.90;;
26223;SDS011;14820;48.682;8.890;2022-12-18T16:18:12;80.82;;;36.00;;
26223;SDS011;14820;48.682;8.890;2022-12-18T16:20:38;82.13;;;36.42;;
26223;SDS011;14820;48.682;8.890;2022-12-18T16:23:04;76.28;;;36.08;;
26223;SDS011;14820;48.682;8.890;2022-12-18T16:25:29;83.15;;;36.95;;
26223;SDS011;14820;48.682;8.890;2022-12-18T16:27:56;79.22;;;34.40;;
26223;SDS011;14820;48.682;8.890;2022-12-18T16:30:25;75.65;;;35.15;;
26223;SDS011;14820;48.682;8.890;2022-12-18T16:32:55;74.40;;;33.05;;
26223;SDS011;14820;48.682;8.890;2022-12-18T16:35:22;71.25;;;31.40;;
26223;SDS011;14820;48.682;8.890;2022-12-18T16:37:48;72.55;;;31.95;;
26223;SDS011;14820;48.682;8.890;2022-12-18T16:40:15;81.70;;;34.17;;
26223;SDS011;14820;48.682;8.890;2022-12-18T16:42:42;74.35;;;32.10;;
26223;SDS011;14820;48.682;8.890;2022-12-18T16:45:15;91.97;;;41.53;;
26223;SDS011;14820;48.682;8.890;2022-12-18T16:47:42;96.90;;;45.70;;
26223;SDS011;14820;48.682;8.890;2022-12-18T16:50:08;107.38;;;48.17;;
26223;SDS011;14820;48.682;8.890;2022-12-18T16:52:35;96.75;;;48.33;;
26223;SDS011;14820;48.682;8.890;2022-12-18T16:55:01;92.03;;;43.25;;
26223;SDS011;14820;48.682;8.890;2022-12-18T16:57:27;86.80;;;38.15;;